createdAt,value
2023-05-04T00:00:08.620Z,6.10
2023-05-04T00:02:35.472Z,5.50
2023-05-04T00:05:02.767Z,5.50
2023-05-04T00:07:29.459Z,5.80
2023-05-04T00:09:56.097Z,6.07
2023-05-04T00:12:22.947Z,6.47
2023-05-04T00:14:49.576Z,6.40
2023-05-04T00:17:16.315Z,6.23
2023-05-04T00:19:44.753Z,5.67
2023-05-04T00:22:11.546Z,6.83
2023-05-04T00:24:38.865Z,6.47
2023-05-04T00:27:05.608Z,6.80
2023-05-04T00:29:32.264Z,6.33
2023-05-04T00:31:59.083Z,5.97
2023-05-04T00:34:25.957Z,6.53
2023-05-04T00:36:52.765Z,6.77
2023-05-04T00:39:19.716Z,7.07
2023-05-04T00:41:46.449Z,6.03
2023-05-04T00:44:13.163Z,6.97
2023-05-04T00:46:40.743Z,6.30
2023-05-04T00:49:08.181Z,6.57
2023-05-04T00:51:35.478Z,7.00
2023-05-04T00:54:02.882Z,6.50
2023-05-04T00:56:31.071Z,6.50
2023-05-04T00:58:58.578Z,6.27
2023-05-04T01:01:26.011Z,7.30
2023-05-04T01:03:54.870Z,6.90
2023-05-04T01:06:31.152Z,7.07
2023-05-04T01:09:11.449Z,7.03
2023-05-04T01:12:06.004Z,6.47
2023-05-04T01:14:34.779Z,7.07
2023-05-04T01:17:05.271Z,7.20
2023-05-04T01:19:32.648Z,7.17
2023-05-04T01:21:59.680Z,7.13
2023-05-04T01:24:27.337Z,7.10
2023-05-04T01:27:00.229Z,6.83
2023-05-04T01:29:42.679Z,7.20
2023-05-04T01:32:12.021Z,6.43
2023-05-04T01:34:40.621Z,6.97
2023-05-04T01:37:08.604Z,7.40
2023-05-04T01:39:35.295Z,7.57
2023-05-04T01:42:02.406Z,7.13
2023-05-04T01:44:29.132Z,7.83
2023-05-04T01:46:55.810Z,6.87
2023-05-04T01:49:22.690Z,6.97
2023-05-04T01:51:49.576Z,7.90
2023-05-04T01:54:16.396Z,7.70
2023-05-04T01:56:43.156Z,7.37
2023-05-04T01:59:09.877Z,7.17
2023-05-04T02:01:36.704Z,8.97
2023-05-04T02:04:03.739Z,7.40
2023-05-04T02:06:30.760Z,8.13
2023-05-04T02:08:57.477Z,8.00
2023-05-04T02:11:24.185Z,8.10
2023-05-04T02:13:50.884Z,8.50
2023-05-04T02:16:17.822Z,8.30
2023-05-04T02:18:44.554Z,8.50
2023-05-04T02:21:11.464Z,8.73
2023-05-04T02:23:38.122Z,8.47
2023-05-04T02:26:04.851Z,8.40
2023-05-04T02:28:31.689Z,8.37
2023-05-04T02:30:58.413Z,8.13
2023-05-04T02:33:25.150Z,8.33
2023-05-04T02:35:51.886Z,8.20
2023-05-04T02:38:18.570Z,8.07
2023-05-04T02:40:45.274Z,7.60
2023-05-04T02:43:11.967Z,7.33
2023-05-04T02:45:38.711Z,7.60
2023-05-04T02:48:05.607Z,7.30
2023-05-04T02:50:32.315Z,7.80
2023-05-04T02:52:59.079Z,7.90
2023-05-04T02:55:25.869Z,7.77
2023-05-04T02:57:52.548Z,7.30
2023-05-04T03:00:19.347Z,8.07
2023-05-04T03:02:46.056Z,7.07
2023-05-04T03:05:12.761Z,7.30
2023-05-04T03:07:39.733Z,8.07
2023-05-04T03:10:08.894Z,7.97
2023-05-04T03:12:35.835Z,8.17
2023-05-04T03:15:02.618Z,7.50
2023-05-04T03:17:29.314Z,7.97
2023-05-04T03:19:56.041Z,7.80
2023-05-04T03:22:22.731Z,8.03
2023-05-04T03:24:49.402Z,7.53
2023-05-04T03:27:16.045Z,7.83
2023-05-04T03:29:42.836Z,7.60
2023-05-04T03:32:09.590Z,9.00
2023-05-04T03:34:36.464Z,8.27
2023-05-04T03:37:03.155Z,8.13
2023-05-04T03:39:29.831Z,8.50
2023-05-04T03:41:56.653Z,8.17
2023-05-04T03:44:23.308Z,8.57
2023-05-04T03:46:49.992Z,8.53
2023-05-04T03:49:16.725Z,8.33
2023-05-04T03:51:43.640Z,8.03
2023-05-04T03:54:10.561Z,8.73
2023-05-04T03:56:37.803Z,8.63
2023-05-04T03:59:04.579Z,7.97
2023-05-04T04:01:31.798Z,7.77
2023-05-04T04:03:58.737Z,7.70
2023-05-04T04:06:26.414Z,9.27
2023-05-04T04:08:53.714Z,8.90
2023-05-04T04:11:21.261Z,8.43
2023-05-04T04:14:08.816Z,9.03
2023-05-04T04:16:56.155Z,8.17
2023-05-04T04:19:42.888Z,8.50
2023-05-04T04:22:29.630Z,9.03
2023-05-04T04:25:16.247Z,8.73
2023-05-04T04:28:03.023Z,9.10
2023-05-04T04:30:42.832Z,7.67
2023-05-04T04:33:29.421Z,7.73
2023-05-04T04:36:18.886Z,7.60
2023-05-04T04:39:06.093Z,7.63
2023-05-04T04:41:45.687Z,7.40
2023-05-04T04:44:32.456Z,7.37
2023-05-04T04:47:19.124Z,7.70
2023-05-04T04:49:45.846Z,7.50
2023-05-04T04:52:12.597Z,7.17
2023-05-04T04:54:39.397Z,7.23
2023-05-04T04:57:06.216Z,6.90
2023-05-04T04:59:33.015Z,7.27
2023-05-04T05:02:00.630Z,7.43
2023-05-04T05:04:27.613Z,6.60
2023-05-04T05:06:54.296Z,7.33
2023-05-04T05:09:21.000Z,6.43
2023-05-04T05:11:47.796Z,6.50
2023-05-04T05:14:14.478Z,5.83
2023-05-04T05:16:41.222Z,6.20
2023-05-04T05:19:08.023Z,6.37
2023-05-04T05:21:34.654Z,6.00
2023-05-04T05:24:01.907Z,6.73
2023-05-04T05:26:28.651Z,6.67
2023-05-04T05:28:55.330Z,6.90
2023-05-04T05:31:22.418Z,6.63
2023-05-04T05:33:49.185Z,6.13
2023-05-04T05:36:15.835Z,6.73
2023-05-04T05:38:42.500Z,6.90
2023-05-04T05:41:09.982Z,7.10
2023-05-04T05:43:38.644Z,6.80
2023-05-04T05:46:06.619Z,5.60
2023-05-04T05:48:33.988Z,6.93
2023-05-04T05:51:00.742Z,6.30
2023-05-04T05:53:27.471Z,6.17
2023-05-04T05:55:54.148Z,8.13
2023-05-04T05:58:20.882Z,6.70
2023-05-04T06:00:48.168Z,7.20
2023-05-04T06:03:15.097Z,6.53
2023-05-04T06:05:41.811Z,6.73
2023-05-04T06:08:08.521Z,6.60
2023-05-04T06:10:35.223Z,6.50
2023-05-04T06:13:02.081Z,6.53
2023-05-04T06:15:28.808Z,7.10
2023-05-04T06:17:55.602Z,6.17
2023-05-04T06:20:22.948Z,5.47
2023-05-04T06:22:49.626Z,5.03
2023-05-04T06:25:16.393Z,5.50
2023-05-04T06:27:43.727Z,4.90
2023-05-04T06:30:11.102Z,5.10
2023-05-04T06:32:37.841Z,4.70
2023-05-04T06:35:05.421Z,4.73
2023-05-04T06:37:32.374Z,4.83
2023-05-04T06:39:59.213Z,4.80
2023-05-04T06:42:29.688Z,4.40
2023-05-04T06:44:58.185Z,4.87
2023-05-04T06:47:25.505Z,5.00
2023-05-04T06:49:54.309Z,5.80
2023-05-04T06:52:21.621Z,5.20
2023-05-04T06:54:48.293Z,5.17
2023-05-04T06:57:15.098Z,5.07
2023-05-04T06:59:42.206Z,5.80
2023-05-04T07:02:08.881Z,5.23
2023-05-04T07:04:35.807Z,5.40
2023-05-04T07:07:03.564Z,5.33
2023-05-04T07:09:30.188Z,5.97
2023-05-04T07:11:58.009Z,5.63
2023-05-04T07:14:28.168Z,5.10
2023-05-04T07:16:57.385Z,5.33
2023-05-04T07:19:24.042Z,4.97
2023-05-04T07:21:53.267Z,4.77
2023-05-04T07:24:20.315Z,4.97
2023-05-04T07:26:47.633Z,5.57
2023-05-04T07:29:14.550Z,4.70
2023-05-04T07:31:42.179Z,4.27
2023-05-04T07:34:11.021Z,4.23
2023-05-04T07:36:37.706Z,4.67
2023-05-04T07:39:04.448Z,4.27
2023-05-04T07:41:31.201Z,4.10
2023-05-04T07:43:57.895Z,4.57
2023-05-04T07:46:24.590Z,3.90
2023-05-04T07:48:51.794Z,4.40
2023-05-04T07:51:18.577Z,4.07
2023-05-04T07:53:48.386Z,4.50
2023-05-04T07:56:15.902Z,4.27
2023-05-04T07:58:42.598Z,4.30
2023-05-04T08:01:09.297Z,4.17
2023-05-04T08:03:36.398Z,4.10
2023-05-04T08:06:03.301Z,4.30
2023-05-04T08:08:29.990Z,4.70
2023-05-04T08:11:08.047Z,4.27
2023-05-04T08:13:45.578Z,3.83
2023-05-04T08:16:12.708Z,4.03
2023-05-04T08:18:39.432Z,4.13
2023-05-04T08:21:06.684Z,4.13
2023-05-04T08:23:33.926Z,3.40
2023-05-04T08:26:05.619Z,3.73
2023-05-04T08:28:35.797Z,4.17
2023-05-04T08:31:03.936Z,4.00
2023-05-04T08:36:11.927Z,3.77
2023-05-04T08:38:38.590Z,4.03
2023-05-04T08:41:05.807Z,4.10
2023-05-04T08:43:36.503Z,3.73
2023-05-04T08:46:04.161Z,4.13
2023-05-04T08:48:34.940Z,3.63
2023-05-04T08:51:02.597Z,4.33
2023-05-04T08:53:29.998Z,4.10
2023-05-04T08:55:57.588Z,3.80
2023-05-04T08:58:24.860Z,4.10
2023-05-04T09:00:52.097Z,4.20
2023-05-04T09:03:19.170Z,3.80
2023-05-04T09:05:46.316Z,3.83
2023-05-04T09:08:13.346Z,4.00
2023-05-04T09:10:40.208Z,4.07
2023-05-04T09:13:06.831Z,3.57
2023-05-04T09:15:33.386Z,3.37
2023-05-04T09:18:06.990Z,4.30
2023-05-04T09:20:43.992Z,4.00
2023-05-04T09:23:11.604Z,3.80
2023-05-04T09:25:51.857Z,3.57
2023-05-04T09:28:19.026Z,3.80
2023-05-04T09:30:46.186Z,4.00
2023-05-04T09:33:13.112Z,3.60
2023-05-04T09:35:44.390Z,4.00
2023-05-04T09:38:10.919Z,4.40
2023-05-04T09:40:38.886Z,3.80
2023-05-04T09:43:06.621Z,3.67
2023-05-04T09:45:40.292Z,4.43
2023-05-04T09:48:19.190Z,4.60
2023-05-04T09:50:51.159Z,4.03
2023-05-04T09:53:19.947Z,5.00
2023-05-04T09:55:47.803Z,3.90
2023-05-04T09:58:16.669Z,4.30
2023-05-04T10:00:43.915Z,4.10
2023-05-04T10:03:10.729Z,4.47
2023-05-04T10:05:38.750Z,4.13
2023-05-04T10:08:05.727Z,4.20
2023-05-04T10:10:32.641Z,4.27
2023-05-04T10:12:59.349Z,3.83
2023-05-04T10:15:26.171Z,3.90
2023-05-04T10:18:16.944Z,4.20
2023-05-04T10:20:44.201Z,3.83
2023-05-04T10:23:18.305Z,4.20
2023-05-04T10:26:03.705Z,3.80
2023-05-04T10:28:54.739Z,4.00
2023-05-04T10:31:21.442Z,4.10
2023-05-04T10:33:48.098Z,4.37
2023-05-04T10:36:14.657Z,3.87
2023-05-04T10:38:41.468Z,4.10
2023-05-04T10:41:17.669Z,4.03
2023-05-04T10:43:50.813Z,4.60
2023-05-04T10:46:21.597Z,4.00
2023-05-04T10:48:48.655Z,4.20
2023-05-04T10:51:22.693Z,4.20
2023-05-04T10:53:49.492Z,4.23
2023-05-04T10:56:25.796Z,4.33
2023-05-04T10:58:52.778Z,4.40
2023-05-04T11:01:19.804Z,3.80
2023-05-04T11:03:47.403Z,4.03
2023-05-04T11:06:15.466Z,3.97
2023-05-04T11:08:42.161Z,4.10
2023-05-04T11:11:08.830Z,4.40
2023-05-04T11:13:36.217Z,4.17
2023-05-04T11:16:02.889Z,4.53
2023-05-04T11:18:31.185Z,4.07
2023-05-04T11:20:58.008Z,4.00
2023-05-04T11:23:25.686Z,4.10
2023-05-04T11:25:52.672Z,3.97
2023-05-04T11:28:19.332Z,4.27
2023-05-04T11:30:47.695Z,4.43
2023-05-04T11:33:15.683Z,4.77
2023-05-04T11:35:43.859Z,4.20
2023-05-04T11:38:10.659Z,4.27
2023-05-04T11:40:40.945Z,4.37
2023-05-04T11:43:09.561Z,4.60
2023-05-04T11:45:36.652Z,4.60
2023-05-04T11:48:03.576Z,4.57
2023-05-04T11:50:30.430Z,4.20
2023-05-04T11:53:10.586Z,4.40
2023-05-04T11:55:40.587Z,4.70
2023-05-04T11:58:11.217Z,4.70
2023-05-04T12:00:43.171Z,4.73
2023-05-04T12:03:13.072Z,4.27
2023-05-04T12:05:46.384Z,4.57
2023-05-04T12:08:45.555Z,4.70
2023-05-04T12:11:16.166Z,4.93
2023-05-04T12:13:43.867Z,5.27
2023-05-04T12:16:11.678Z,4.33
2023-05-04T12:18:38.288Z,4.97
2023-05-04T12:21:23.067Z,4.90
2023-05-04T12:23:49.978Z,4.63
2023-05-04T12:26:19.819Z,4.37
2023-05-04T12:28:47.304Z,4.87
2023-05-04T12:31:13.933Z,4.40
2023-05-04T12:33:40.913Z,4.20
2023-05-04T12:36:07.645Z,4.47
2023-05-04T12:38:34.357Z,5.17
2023-05-04T12:41:04.279Z,4.87
2023-05-04T12:43:34.085Z,5.23
2023-05-04T12:46:00.798Z,4.93
2023-05-04T12:48:29.207Z,4.53
2023-05-04T12:50:56.123Z,4.00
2023-05-04T12:53:24.584Z,4.00
2023-05-04T12:55:51.389Z,4.93
2023-05-04T12:58:17.933Z,4.20
2023-05-04T13:00:45.863Z,4.47
2023-05-04T13:03:13.160Z,4.17
2023-05-04T13:05:40.123Z,4.13
2023-05-04T13:08:06.698Z,4.13
2023-05-04T13:10:33.284Z,4.57
2023-05-04T13:12:59.823Z,3.83
2023-05-04T13:15:30.181Z,3.90
2023-05-04T13:17:57.002Z,3.67
2023-05-04T13:20:23.506Z,3.90
2023-05-04T13:22:50.861Z,4.10
2023-05-04T13:25:17.466Z,3.50
2023-05-04T13:27:44.108Z,3.73
2023-05-04T13:30:11.126Z,3.70
2023-05-04T13:32:37.930Z,4.03
2023-05-04T13:35:05.022Z,3.73
2023-05-04T13:37:31.654Z,3.70
2023-05-04T13:39:59.617Z,4.10
2023-05-04T13:42:26.285Z,3.70
2023-05-04T13:44:53.037Z,3.80
2023-05-04T13:47:19.612Z,3.67
2023-05-04T13:49:46.116Z,3.90
2023-05-04T13:52:13.563Z,3.90
2023-05-04T13:54:40.294Z,3.87
2023-05-04T13:57:07.311Z,3.60
2023-05-04T13:59:34.294Z,3.70
2023-05-04T14:02:01.369Z,3.70
2023-05-04T14:04:27.968Z,3.63
2023-05-04T14:06:54.867Z,3.72
2023-05-04T14:09:21.459Z,3.40
2023-05-04T14:11:48.107Z,3.77
2023-05-04T14:14:14.621Z,4.00
2023-05-04T14:16:42.053Z,3.45
2023-05-04T14:19:08.765Z,3.60
2023-05-04T14:21:35.929Z,3.70
2023-05-04T14:24:02.552Z,3.65
2023-05-04T14:26:29.498Z,3.63
2023-05-04T14:28:56.207Z,3.47
2023-05-04T14:31:22.795Z,3.45
2023-05-04T14:33:49.509Z,3.53
2023-05-04T14:36:16.027Z,3.00
2023-05-04T14:38:42.966Z,3.40
2023-05-04T14:41:10.253Z,3.45
2023-05-04T14:43:36.821Z,3.03
2023-05-04T14:46:03.362Z,3.07
2023-05-04T14:48:30.049Z,3.47
2023-05-04T14:50:56.848Z,3.47
2023-05-04T14:53:23.666Z,3.20
2023-05-04T14:55:50.588Z,3.47
2023-05-04T14:58:17.263Z,2.92
2023-05-04T15:00:44.720Z,3.33
2023-05-04T15:03:11.382Z,3.00
2023-05-04T15:05:38.236Z,3.20
2023-05-04T15:08:05.055Z,3.22
2023-05-04T15:10:33.186Z,2.80
2023-05-04T15:13:00.131Z,2.80
2023-05-04T15:15:26.690Z,2.90
2023-05-04T15:17:53.421Z,3.37
2023-05-04T15:20:20.139Z,2.97
2023-05-04T15:22:47.417Z,2.80
2023-05-04T15:25:13.937Z,2.80
2023-05-04T15:27:40.912Z,2.60
2023-05-04T15:30:09.010Z,3.20
2023-05-04T15:32:36.229Z,2.87
2023-05-04T15:35:05.988Z,2.53
2023-05-04T15:37:32.963Z,2.83
2023-05-04T15:40:03.741Z,3.27
2023-05-04T15:42:30.628Z,2.80
2023-05-04T15:44:59.766Z,2.83
2023-05-04T15:47:26.438Z,2.87
2023-05-04T15:49:52.963Z,2.97
2023-05-04T15:52:19.518Z,2.70
2023-05-04T15:54:47.360Z,3.13
2023-05-04T15:57:14.994Z,3.50
2023-05-04T15:59:41.761Z,3.00
2023-05-04T16:02:09.817Z,3.37
2023-05-04T16:04:36.446Z,3.47
2023-05-04T16:07:02.951Z,2.90
2023-05-04T16:09:31.252Z,3.57
2023-05-04T16:11:57.971Z,3.07
2023-05-04T16:14:24.468Z,3.20
2023-05-04T16:16:51.079Z,3.33
2023-05-04T16:19:19.032Z,2.73
2023-05-04T16:21:45.524Z,2.65
2023-05-04T16:24:13.592Z,3.45
2023-05-04T16:26:40.601Z,3.38
2023-05-04T16:29:07.144Z,3.20
2023-05-04T16:31:33.893Z,2.97
2023-05-04T16:34:00.536Z,2.70
2023-05-04T16:36:27.215Z,3.53
2023-05-04T16:38:53.777Z,2.97
2023-05-04T16:41:20.388Z,2.78
2023-05-04T16:43:48.997Z,3.35
2023-05-04T16:46:15.685Z,2.88
2023-05-04T16:48:42.238Z,3.10
2023-05-04T16:51:08.871Z,3.17
2023-05-04T16:53:35.637Z,3.50
2023-05-04T16:56:02.374Z,2.73
2023-05-04T16:58:28.937Z,3.10
2023-05-04T17:00:55.737Z,2.87
2023-05-04T17:03:22.864Z,2.90
2023-05-04T17:05:49.567Z,2.90
2023-05-04T17:08:17.462Z,2.90
2023-05-04T17:10:44.130Z,3.30
2023-05-04T17:13:10.721Z,3.13
2023-05-04T17:15:37.323Z,3.30
2023-05-04T17:18:03.947Z,3.40
2023-05-04T17:20:32.141Z,3.30
2023-05-04T17:22:59.072Z,2.90
2023-05-04T17:25:26.735Z,3.80
2023-05-04T17:27:53.681Z,3.13
2023-05-04T17:30:20.773Z,3.37
2023-05-04T17:32:48.715Z,3.50
2023-05-04T17:35:24.318Z,3.30
2023-05-04T17:37:51.526Z,4.20
2023-05-04T17:40:18.080Z,3.37
2023-05-04T17:42:44.623Z,3.47
2023-05-04T17:45:11.394Z,3.87
2023-05-04T17:47:38.000Z,3.83
2023-05-04T17:50:05.033Z,3.87
2023-05-04T17:52:31.748Z,3.57
2023-05-04T17:54:58.239Z,4.70
2023-05-04T17:57:24.845Z,4.13
2023-05-04T17:59:51.490Z,4.20
2023-05-04T18:02:18.053Z,5.37
2023-05-04T18:04:44.575Z,4.40
2023-05-04T18:07:11.194Z,4.47
2023-05-04T18:09:37.787Z,4.63
2023-05-04T18:12:04.485Z,4.50
2023-05-04T18:14:31.156Z,4.47
2023-05-04T18:16:57.693Z,6.33
2023-05-04T18:19:24.971Z,7.00
2023-05-04T18:21:51.696Z,5.47
2023-05-04T18:24:18.628Z,4.53
2023-05-04T18:26:45.904Z,4.70
2023-05-04T18:31:44.293Z,4.93
2023-05-04T18:34:11.244Z,5.53
2023-05-04T18:36:38.100Z,4.60
2023-05-04T18:39:05.347Z,4.20
2023-05-04T18:41:32.974Z,4.63
2023-05-04T18:44:01.438Z,4.10
2023-05-04T18:46:28.493Z,4.70
2023-05-04T18:48:56.387Z,4.27
2023-05-04T18:51:23.132Z,4.73
2023-05-04T18:53:50.597Z,4.23
2023-05-04T18:56:17.597Z,4.40
2023-05-04T18:58:44.437Z,4.60
2023-05-04T19:01:11.762Z,4.63
2023-05-04T19:03:38.628Z,4.43
2023-05-04T19:06:05.559Z,4.77
2023-05-04T19:08:33.360Z,5.00
2023-05-04T19:11:00.269Z,4.30
2023-05-04T19:13:27.157Z,4.60
2023-05-04T19:15:53.759Z,4.93
2023-05-04T19:18:20.456Z,4.73
2023-05-04T19:20:47.013Z,4.20
2023-05-04T19:23:13.626Z,4.63
2023-05-04T19:25:40.632Z,4.87
2023-05-04T19:28:10.192Z,4.63
2023-05-04T19:30:37.069Z,4.47
2023-05-04T19:33:03.848Z,5.10
2023-05-04T19:35:30.687Z,4.90
2023-05-04T19:37:57.501Z,5.07
2023-05-04T19:40:24.043Z,4.63
2023-05-04T19:42:51.104Z,4.83
2023-05-04T19:45:17.682Z,5.00
2023-05-04T19:47:45.531Z,4.90
2023-05-04T19:50:14.076Z,5.20
2023-05-04T19:52:40.763Z,4.50
2023-05-04T19:55:07.524Z,4.87
2023-05-04T19:57:34.038Z,5.00
2023-05-04T20:00:00.939Z,4.57
2023-05-04T20:02:28.120Z,5.00
2023-05-04T20:04:55.899Z,5.17
2023-05-04T20:07:22.855Z,5.20
2023-05-04T20:09:49.595Z,4.83
2023-05-04T20:12:16.396Z,4.70
2023-05-04T20:14:43.781Z,4.70
2023-05-04T20:17:10.396Z,4.50
2023-05-04T20:19:39.151Z,4.93
2023-05-04T20:22:05.735Z,4.20
2023-05-04T20:24:32.226Z,4.30
2023-05-04T20:26:58.812Z,4.83
2023-05-04T20:29:25.554Z,4.50
2023-05-04T20:31:52.638Z,4.17
2023-05-04T20:34:19.304Z,4.90
2023-05-04T20:36:46.316Z,4.77
2023-05-04T20:39:13.541Z,5.00
2023-05-04T20:41:40.772Z,4.73
2023-05-04T20:44:07.317Z,4.40
2023-05-04T20:46:34.217Z,4.37
2023-05-04T20:49:02.906Z,4.20
2023-05-04T20:51:29.731Z,4.33
2023-05-04T20:53:56.572Z,4.40
2023-05-04T20:56:23.311Z,3.90
2023-05-04T20:58:50.760Z,4.60
2023-05-04T21:01:17.483Z,4.73
2023-05-04T21:03:44.312Z,3.80
2023-05-04T21:06:12.248Z,4.20
2023-05-04T21:08:39.179Z,3.93
2023-05-04T21:11:06.638Z,4.23
2023-05-04T21:13:33.351Z,3.50
2023-05-04T21:15:59.942Z,4.37
2023-05-04T21:18:26.572Z,4.20
2023-05-04T21:20:53.172Z,3.10
2023-05-04T21:23:19.885Z,3.53
2023-05-04T21:25:46.922Z,3.97
2023-05-04T21:28:13.544Z,3.67
2023-05-04T21:30:43.608Z,3.70
2023-05-04T21:33:10.310Z,3.83
2023-05-04T21:35:36.867Z,3.63
2023-05-04T21:38:05.217Z,3.87
2023-05-04T21:40:32.362Z,3.67
2023-05-04T21:42:59.015Z,4.03
2023-05-04T21:45:25.716Z,3.53
2023-05-04T21:47:52.364Z,3.97
2023-05-04T21:50:18.929Z,3.97
2023-05-04T21:52:45.681Z,3.67
2023-05-04T21:55:12.303Z,4.20
2023-05-04T21:57:39.394Z,3.83
2023-05-04T22:00:12.057Z,4.00
2023-05-04T22:02:39.067Z,3.87
2023-05-04T22:05:06.558Z,3.57
2023-05-04T22:07:34.277Z,3.67
2023-05-04T22:10:04.191Z,4.50
2023-05-04T22:12:30.913Z,3.87
2023-05-04T22:14:57.482Z,3.77
2023-05-04T22:17:24.035Z,3.93
2023-05-04T22:19:50.637Z,4.03
2023-05-04T22:22:17.172Z,3.93
2023-05-04T22:24:43.660Z,3.90
2023-05-04T22:27:10.200Z,4.30
2023-05-04T22:29:36.829Z,3.50
2023-05-04T22:32:03.324Z,3.47
2023-05-04T22:34:29.905Z,4.10
2023-05-04T22:36:56.489Z,3.80
2023-05-04T22:39:22.952Z,3.97
2023-05-04T22:41:49.593Z,4.70
2023-05-04T22:44:16.106Z,3.70
2023-05-04T22:46:42.692Z,4.20
2023-05-04T22:49:09.312Z,3.87
2023-05-04T22:51:35.863Z,3.87
2023-05-04T22:54:02.442Z,4.10
2023-05-04T22:56:29.038Z,4.60
2023-05-04T22:58:55.781Z,4.03
2023-05-04T23:01:22.385Z,4.17
2023-05-04T23:03:49.082Z,4.33
2023-05-04T23:06:15.848Z,4.30
2023-05-04T23:08:42.460Z,4.20
2023-05-04T23:11:08.961Z,3.83
2023-05-04T23:13:35.490Z,4.37
2023-05-04T23:16:02.649Z,4.40
2023-05-04T23:18:29.461Z,5.00
2023-05-04T23:20:56.008Z,5.00
2023-05-04T23:23:22.527Z,4.37
2023-05-04T23:25:49.100Z,4.70
2023-05-04T23:28:15.637Z,4.60
2023-05-04T23:30:42.111Z,4.87
2023-05-04T23:33:08.737Z,5.63
2023-05-04T23:35:35.272Z,4.87
2023-05-04T23:38:01.894Z,4.63
2023-05-04T23:40:28.390Z,4.80
2023-05-04T23:42:54.982Z,5.00
2023-05-04T23:45:21.635Z,4.63
2023-05-04T23:47:48.284Z,4.80
2023-05-04T23:50:14.944Z,4.80
2023-05-04T23:52:41.482Z,4.60
2023-05-04T23:55:08.278Z,5.53
2023-05-04T23:57:34.803Z,5.20
